首页
METAR-TAF:

METAR-TAF

机场 :

潘狄頓區域機場

Penticton, 不列颠哥伦比亚, 加拿大

纬度: 49-28N, 经度: 119-36W, 海拔: 344米

当前天气观测

该预报发布于56分钟前的14:00 UTC
风速8节,风向
温度 15°C
湿度 48%
气压 1012 hPa
能見度: 24.1公里
散云层高于25000英尺

METAR: CYYF 121400Z 36008KT 15SM SCT250 15/04 A2988 RMK CI3 SLP118 DENSITY ALT 1400FT

时间: 07:56 (14:56 UTC)

预报

该预报发布于2小时和18分钟前的12:38 UTC
预报有效从12日的 13点(UTC)到 13日的 01点(UTC)
风速3节,风向多变
能見度: 10公里
少量云层高于9000英尺
散云层高于21000英尺
成为
从 12日的 15点(UTC)到 12日的 17点(UTC)
风速7节,风向

TAF: CYYF 121238Z 1213/1301 VRB03KT P6SM FEW090 SCT210 BECMG 1215/1217 36007KT RMK NXT FCST BY 121900Z

超过4000个机场的气象观测和天气预报(METAR&TAF报告)。

可查询的气象台以黄色和红色小点在地图上表示。

将鼠标移到小点上方,可查看气象台名称。

然后点击查看天气观测和预报。

如需切换地图:点击带黑十字的绿色按钮放大地图;点击带横线的绿色按钮缩小地图;或者点击绿色箭头查看邻近地区的地图。


METAR-TAF: